sensor_id;sensor_type;location;lat;lon;timestamp;pressure;altitude;pressure_sealevel;temperature;humidity
51781;BME280;37844;57.126;24.288;2023-04-25T00:00:57;100351.66;;;13.39;98.77
51781;BME280;37844;57.126;24.288;2023-04-25T00:03:41;100340.38;;;13.43;97.10
51781;BME280;37844;57.126;24.288;2023-04-25T00:06:25;100343.81;;;13.48;95.53
51781;BME280;37844;57.126;24.288;2023-04-25T00:09:10;100344.69;;;13.48;93.98
51781;BME280;37844;57.126;24.288;2023-04-25T00:11:54;100347.25;;;13.50;93.54
51781;BME280;37844;57.126;24.288;2023-04-25T00:14:38;100336.09;;;13.43;93.97
51781;BME280;37844;57.126;24.288;2023-04-25T00:17:22;100335.25;;;13.33;93.86
51781;BME280;37844;57.126;24.288;2023-04-25T00:20:08;100336.13;;;13.25;94.11
51781;BME280;37844;57.126;24.288;2023-04-25T00:22:55;100330.09;;;13.30;93.85
51781;BME280;37844;57.126;24.288;2023-04-25T00:25:39;100333.56;;;13.22;93.22
51781;BME280;37844;57.126;24.288;2023-04-25T00:28:23;100336.16;;;13.22;92.67
51781;BME280;37844;57.126;24.288;2023-04-25T00:31:07;100333.56;;;13.20;92.21
51781;BME280;37844;57.126;24.288;2023-04-25T00:33:52;100329.22;;;13.25;91.80
51781;BME280;37844;57.126;24.288;2023-04-25T00:36:36;100333.59;;;13.17;92.15
51781;BME280;37844;57.126;24.288;2023-04-25T00:39:21;100331.88;;;13.11;91.70
51781;BME280;37844;57.126;24.288;2023-04-25T00:42:05;100327.59;;;13.06;91.28
51781;BME280;37844;57.126;24.288;2023-04-25T00:44:50;100313.81;;;13.01;90.49
51781;BME280;37844;57.126;24.288;2023-04-25T00:47:35;100316.34;;;13.13;89.23
51781;BME280;37844;57.126;24.288;2023-04-25T00:50:19;100324.16;;;13.01;89.52
51781;BME280;37844;57.126;24.288;2023-04-25T00:53:03;100325.06;;;12.87;90.31
51781;BME280;37844;57.126;24.288;2023-04-25T00:55:47;100319.06;;;12.79;90.85
51781;BME280;37844;57.126;24.288;2023-04-25T00:58:34;100318.25;;;12.69;91.08
51781;BME280;37844;57.126;24.288;2023-04-25T01:01:18;100313.91;;;12.70;90.93
51781;BME280;37844;57.126;24.288;2023-04-25T01:04:03;100315.66;;;12.63;90.93
51781;BME280;37844;57.126;24.288;2023-04-25T01:06:47;100309.63;;;12.57;90.45
51781;BME280;37844;57.126;24.288;2023-04-25T01:09:31;100310.50;;;12.52;90.75
51781;BME280;37844;57.126;24.288;2023-04-25T01:12:15;100316.56;;;12.42;91.49
51781;BME280;37844;57.126;24.288;2023-04-25T01:14:59;100326.03;;;12.40;90.87
51781;BME280;37844;57.126;24.288;2023-04-25T01:17:44;100319.16;;;12.35;91.27
51781;BME280;37844;57.126;24.288;2023-04-25T01:20:28;100307.94;;;12.40;90.68
51781;BME280;37844;57.126;24.288;2023-04-25T01:23:12;100314.84;;;12.35;90.38
51781;BME280;37844;57.126;24.288;2023-04-25T01:25:57;100313.97;;;12.39;90.16
51781;BME280;37844;57.126;24.288;2023-04-25T01:28:41;100322.59;;;12.34;90.11
51781;BME280;37844;57.126;24.288;2023-04-25T01:31:26;100317.44;;;12.30;89.97
51781;BME280;37844;57.126;24.288;2023-04-25T01:34:10;100330.34;;;12.14;90.31
51781;BME280;37844;57.126;24.288;2023-04-25T01:36:55;100324.34;;;12.01;91.13
51781;BME280;37844;57.126;24.288;2023-04-25T01:39:39;100314.00;;;11.96;90.88
51781;BME280;37844;57.126;24.288;2023-04-25T01:42:24;100317.44;;;12.01;90.90
51781;BME280;37844;57.126;24.288;2023-04-25T01:45:08;100320.03;;;12.00;90.67
51781;BME280;37844;57.126;24.288;2023-04-25T01:47:52;100316.59;;;11.96;90.01
51781;BME280;37844;57.126;24.288;2023-04-25T01:50:37;100317.44;;;11.91;89.55
51781;BME280;37844;57.126;24.288;2023-04-25T01:53:21;100296.75;;;11.84;89.27
51781;BME280;37844;57.126;24.288;2023-04-25T01:56:06;100310.53;;;11.86;89.23
51781;BME280;37844;57.126;24.288;2023-04-25T01:58:50;100309.66;;;11.86;89.71
51781;BME280;37844;57.126;24.288;2023-04-25T02:01:34;100306.19;;;11.81;89.65
51781;BME280;37844;57.126;24.288;2023-04-25T02:04:18;100307.91;;;11.79;89.46
51781;BME280;37844;57.126;24.288;2023-04-25T02:07:03;100306.19;;;11.84;88.05
51781;BME280;37844;57.126;24.288;2023-04-25T02:09:47;100301.94;;;11.89;88.04
51781;BME280;37844;57.126;24.288;2023-04-25T02:12:31;100304.47;;;11.81;87.64
51781;BME280;37844;57.126;24.288;2023-04-25T02:15:15;100305.31;;;11.74;87.52
51781;BME280;37844;57.126;24.288;2023-04-25T02:17:59;100313.09;;;11.68;87.57
51781;BME280;37844;57.126;24.288;2023-04-25T02:20:44;100298.44;;;11.68;87.71
51781;BME280;37844;57.126;24.288;2023-04-25T02:23:28;100301.88;;;11.69;87.00
51781;BME280;37844;57.126;24.288;2023-04-25T02:26:12;100295.00;;;11.68;87.31
51781;BME280;37844;57.126;24.288;2023-04-25T02:28:57;100288.13;;;11.61;86.71
51781;BME280;37844;57.126;24.288;2023-04-25T02:31:41;100290.69;;;11.58;86.63
51781;BME280;37844;57.126;24.288;2023-04-25T02:34:25;100289.84;;;11.56;86.70
51781;BME280;37844;57.126;24.288;2023-04-25T02:37:09;100286.38;;;11.60;86.42
51781;BME280;37844;57.126;24.288;2023-04-25T02:39:53;100286.38;;;11.57;86.52
51781;BME280;37844;57.126;24.288;2023-04-25T02:42:37;100295.00;;;11.51;86.38
51781;BME280;37844;57.126;24.288;2023-04-25T02:45:21;100289.81;;;11.46;86.18
51781;BME280;37844;57.126;24.288;2023-04-25T02:48:05;100283.81;;;11.46;86.12
51781;BME280;37844;57.126;24.288;2023-04-25T02:50:49;100288.09;;;11.42;85.82
51781;BME280;37844;57.126;24.288;2023-04-25T02:53:33;100288.97;;;11.46;86.16
51781;BME280;37844;57.126;24.288;2023-04-25T02:56:17;100291.53;;;11.44;86.05
51781;BME280;37844;57.126;24.288;2023-04-25T02:59:01;100294.97;;;11.46;85.82
51781;BME280;37844;57.126;24.288;2023-04-25T03:01:45;100284.66;;;11.42;85.70
51781;BME280;37844;57.126;24.288;2023-04-25T03:04:29;100290.69;;;11.47;85.78
51781;BME280;37844;57.126;24.288;2023-04-25T03:07:13;100287.25;;;11.57;84.78
51781;BME280;37844;57.126;24.288;2023-04-25T03:09:57;100285.50;;;11.50;85.04
51781;BME280;37844;57.126;24.288;2023-04-25T03:12:41;100285.50;;;11.42;85.55
51781;BME280;37844;57.126;24.288;2023-04-25T03:15:25;100283.81;;;11.49;85.36
51781;BME280;37844;57.126;24.288;2023-04-25T03:18:09;100283.78;;;11.44;85.36
51781;BME280;37844;57.126;24.288;2023-04-25T03:20:53;100281.22;;;11.46;85.46
51781;BME280;37844;57.126;24.288;2023-04-25T03:23:37;100279.47;;;11.45;86.13
51781;BME280;37844;57.126;24.288;2023-04-25T03:26:21;100276.03;;;11.51;86.04
51781;BME280;37844;57.126;24.288;2023-04-25T03:29:05;100274.34;;;11.51;85.78
51781;BME280;37844;57.126;24.288;2023-04-25T03:31:49;100274.34;;;11.65;85.37
51781;BME280;37844;57.126;24.288;2023-04-25T03:34:33;100274.38;;;11.60;84.85
51781;BME280;37844;57.126;24.288;2023-04-25T03:37:24;100272.63;;;11.65;84.71
51781;BME280;37844;57.126;24.288;2023-04-25T03:40:08;100271.75;;;11.74;84.68
51781;BME280;37844;57.126;24.288;2023-04-25T03:42:52;100280.41;;;11.82;85.00
51781;BME280;37844;57.126;24.288;2023-04-25T03:45:36;100281.22;;;11.81;84.67
51781;BME280;37844;57.126;24.288;2023-04-25T03:48:20;100274.38;;;11.86;85.10
51781;BME280;37844;57.126;24.288;2023-04-25T03:51:09;100288.16;;;11.95;84.75
51781;BME280;37844;57.126;24.288;2023-04-25T03:53:53;100282.13;;;12.06;84.59
51781;BME280;37844;57.126;24.288;2023-04-25T03:56:37;100271.81;;;12.17;84.73
51781;BME280;37844;57.126;24.288;2023-04-25T03:59:21;100278.69;;;12.18;85.58
51781;BME280;37844;57.126;24.288;2023-04-25T04:02:05;100282.09;;;12.42;83.85
51781;BME280;37844;57.126;24.288;2023-04-25T04:04:49;100282.06;;;12.45;84.42
51781;BME280;37844;57.126;24.288;2023-04-25T04:07:33;100275.16;;;12.59;83.49
51781;BME280;37844;57.126;24.288;2023-04-25T04:10:23;100277.72;;;12.59;83.85
51781;BME280;37844;57.126;24.288;2023-04-25T04:13:07;100281.16;;;12.60;84.81
51781;BME280;37844;57.126;24.288;2023-04-25T04:15:51;100282.88;;;12.68;84.58
51781;BME280;37844;57.126;24.288;2023-04-25T04:18:35;100282.00;;;12.72;84.70
51781;BME280;37844;57.126;24.288;2023-04-25T04:21:19;100292.31;;;12.80;84.49
51781;BME280;37844;57.126;24.288;2023-04-25T04:24:03;100293.16;;;12.88;83.25
51781;BME280;37844;57.126;24.288;2023-04-25T04:26:47;100304.34;;;12.97;81.90
51781;BME280;37844;57.126;24.288;2023-04-25T04:29:31;100296.56;;;13.03;81.03
51781;BME280;37844;57.126;24.288;2023-04-25T04:32:15;100287.91;;;13.08;80.52
51781;BME280;37844;57.126;24.288;2023-04-25T04:34:59;100287.06;;;13.08;81.48
51781;BME280;37844;57.126;24.288;2023-04-25T04:37:44;100296.53;;;13.06;82.01
51781;BME280;37844;57.126;24.288;2023-04-25T04:40:29;100293.06;;;13.08;82.18
51781;BME280;37844;57.126;24.288;2023-04-25T04:43:14;100287.81;;;13.27;80.64
51781;BME280;37844;57.126;24.288;2023-04-25T04:46:00;100286.09;;;13.24;79.47
51781;BME280;37844;57.126;24.288;2023-04-25T04:48:44;100283.50;;;13.26;79.80
51781;BME280;37844;57.126;24.288;2023-04-25T04:51:29;100285.22;;;13.31;79.43
51781;BME280;37844;57.126;24.288;2023-04-25T04:54:14;100285.19;;;13.38;80.76
51781;BME280;37844;57.126;24.288;2023-04-25T04:56:58;100286.88;;;13.45;79.68
51781;BME280;37844;57.126;24.288;2023-04-25T04:59:43;100286.81;;;13.52;78.81
51781;BME280;37844;57.126;24.288;2023-04-25T05:02:27;100286.78;;;13.58;78.56
51781;BME280;37844;57.126;24.288;2023-04-25T05:05:11;100290.31;;;13.48;80.75
51781;BME280;37844;57.126;24.288;2023-04-25T05:07:55;100286.88;;;13.45;81.14
51781;BME280;37844;57.126;24.288;2023-04-25T05:10:39;100282.53;;;13.48;81.18
51781;BME280;37844;57.126;24.288;2023-04-25T05:13:23;100284.22;;;13.54;81.01
51781;BME280;37844;57.126;24.288;2023-04-25T05:16:07;100273.84;;;13.58;81.27
51781;BME280;37844;57.126;24.288;2023-04-25T05:18:51;100274.63;;;13.70;80.65
51781;BME280;37844;57.126;24.288;2023-04-25T05:21:34;100272.91;;;13.66;80.62
51781;BME280;37844;57.126;24.288;2023-04-25T05:24:18;100275.41;;;13.79;80.06
51781;BME280;37844;57.126;24.288;2023-04-25T05:27:03;100275.41;;;13.79;79.36
51781;BME280;37844;57.126;24.288;2023-04-25T05:29:47;100271.16;;;13.74;79.24
51781;BME280;37844;57.126;24.288;2023-04-25T05:32:30;100275.38;;;13.86;79.74
51781;BME280;37844;57.126;24.288;2023-04-25T05:35:14;100272.72;;;13.92;79.17
51781;BME280;37844;57.126;24.288;2023-04-25T05:37:58;100269.94;;;14.15;77.50
51781;BME280;37844;57.126;24.288;2023-04-25T05:40:43;100270.66;;;14.29;76.38
51781;BME280;37844;57.126;24.288;2023-04-25T05:43:27;100267.25;;;14.21;76.70
51781;BME280;37844;57.126;24.288;2023-04-25T05:46:11;100280.13;;;14.30;76.75
51781;BME280;37844;57.126;24.288;2023-04-25T05:48:55;100276.59;;;14.40;75.57
51781;BME280;37844;57.126;24.288;2023-04-25T05:51:39;100224.06;;;14.20;75.03
51781;BME280;37844;57.126;24.288;2023-04-25T05:54:23;100279.84;;;14.61;73.98
51781;BME280;37844;57.126;24.288;2023-04-25T05:57:07;100276.31;;;14.70;73.01
51781;BME280;37844;57.126;24.288;2023-04-25T05:59:51;100272.91;;;14.63;74.37
51781;BME280;37844;57.126;24.288;2023-04-25T06:02:35;100272.66;;;14.86;73.29
51781;BME280;37844;57.126;24.288;2023-04-25T06:05:19;100276.03;;;14.90;72.86
51781;BME280;37844;57.126;24.288;2023-04-25T06:08:03;100274.19;;;15.01;72.63
51781;BME280;37844;57.126;24.288;2023-04-25T06:10:48;100281.03;;;15.06;70.61
51781;BME280;37844;57.126;24.288;2023-04-25T06:13:32;100280.84;;;15.20;70.94
51781;BME280;37844;57.126;24.288;2023-04-25T06:16:16;100277.28;;;15.27;70.65
51781;BME280;37844;57.126;24.288;2023-04-25T06:19:00;100282.41;;;15.32;69.37
51781;BME280;37844;57.126;24.288;2023-04-25T06:21:44;100277.03;;;15.47;69.37
51781;BME280;37844;57.126;24.288;2023-04-25T06:24:28;100281.25;;;15.55;69.21
51781;BME280;37844;57.126;24.288;2023-04-25T06:27:12;100282.13;;;16.08;69.01
51781;BME280;37844;57.126;24.288;2023-04-25T06:29:56;100271.31;;;16.79;67.58
51781;BME280;37844;57.126;24.288;2023-04-25T06:32:40;100276.31;;;18.69;63.15
51781;BME280;37844;57.126;24.288;2023-04-25T06:35:24;100268.56;;;19.27;58.25
51781;BME280;37844;57.126;24.288;2023-04-25T06:38:08;100271.50;;;19.16;58.12
51781;BME280;37844;57.126;24.288;2023-04-25T06:40:53;100271.78;;;18.77;58.25
51781;BME280;37844;57.126;24.288;2023-04-25T06:43:36;100264.28;;;20.07;57.14
51781;BME280;37844;57.126;24.288;2023-04-25T06:46:20;100261.84;;;21.68;53.48
51781;BME280;37844;57.126;24.288;2023-04-25T06:49:04;100256.16;;;22.40;51.91
51781;BME280;37844;57.126;24.288;2023-04-25T06:51:49;100259.63;;;24.09;48.75
51781;BME280;37844;57.126;24.288;2023-04-25T06:54:33;100258.84;;;24.58;46.01
51781;BME280;37844;57.126;24.288;2023-04-25T06:57:17;100248.50;;;25.82;44.14
51781;BME280;37844;57.126;24.288;2023-04-25T07:00:00;100243.81;;;25.87;43.52
51781;BME280;37844;57.126;24.288;2023-04-25T07:02:44;100250.00;;;26.16;42.59
51781;BME280;37844;57.126;24.288;2023-04-25T07:05:28;100243.78;;;26.03;42.33
51781;BME280;37844;57.126;24.288;2023-04-25T07:08:12;100259.28;;;26.52;40.93
51781;BME280;37844;57.126;24.288;2023-04-25T07:10:56;100242.38;;;26.83;40.38
51781;BME280;37844;57.126;24.288;2023-04-25T07:13:40;100244.63;;;27.45;39.06
51781;BME280;37844;57.126;24.288;2023-04-25T07:16:24;100256.00;;;27.60;39.02
51781;BME280;37844;57.126;24.288;2023-04-25T07:19:08;100246.50;;;27.70;38.66
51781;BME280;37844;57.126;24.288;2023-04-25T07:21:52;100259.13;;;28.58;37.74
51781;BME280;37844;57.126;24.288;2023-04-25T07:24:37;100244.94;;;28.46;37.30
51781;BME280;37844;57.126;24.288;2023-04-25T07:27:21;100244.28;;;28.56;37.09
51781;BME280;37844;57.126;24.288;2023-04-25T07:30:05;100248.94;;;28.65;37.01
51781;BME280;37844;57.126;24.288;2023-04-25T07:32:50;100249.25;;;29.23;36.40
51781;BME280;37844;57.126;24.288;2023-04-25T07:35:34;100253.22;;;30.00;36.00
51781;BME280;37844;57.126;24.288;2023-04-25T07:38:18;100243.97;;;29.58;35.75
51781;BME280;37844;57.126;24.288;2023-04-25T07:41:02;100244.38;;;29.65;36.45
51781;BME280;37844;57.126;24.288;2023-04-25T07:43:46;100239.59;;;30.16;35.96
51781;BME280;37844;57.126;24.288;2023-04-25T07:46:30;100251.03;;;30.86;34.34
51781;BME280;37844;57.126;24.288;2023-04-25T07:49:14;100244.50;;;29.98;35.28
51781;BME280;37844;57.126;24.288;2023-04-25T07:51:58;100238.56;;;29.84;35.21
51781;BME280;37844;57.126;24.288;2023-04-25T07:54:42;100265.63;;;29.16;35.83
51781;BME280;37844;57.126;24.288;2023-04-25T07:57:26;100240.78;;;29.42;35.78
51781;BME280;37844;57.126;24.288;2023-04-25T08:00:10;100248.84;;;29.64;35.44
51781;BME280;37844;57.126;24.288;2023-04-25T08:02:55;100247.22;;;30.21;35.15
51781;BME280;37844;57.126;24.288;2023-04-25T08:05:38;100236.94;;;30.16;34.39
51781;BME280;37844;57.126;24.288;2023-04-25T08:08:23;100249.81;;;30.56;34.45
51781;BME280;37844;57.126;24.288;2023-04-25T08:11:07;100244.84;;;29.94;35.85
51781;BME280;37844;57.126;24.288;2023-04-25T08:13:51;100241.81;;;30.45;35.84
51781;BME280;37844;57.126;24.288;2023-04-25T08:16:35;100230.44;;;30.32;34.32
51781;BME280;37844;57.126;24.288;2023-04-25T08:19:19;100231.41;;;30.53;32.21
51781;BME280;37844;57.126;24.288;2023-04-25T08:22:03;100247.38;;;29.60;33.90
51781;BME280;37844;57.126;24.288;2023-04-25T08:24:47;100248.13;;;29.01;36.56
51781;BME280;37844;57.126;24.288;2023-04-25T08:27:31;100246.16;;;30.46;35.05
51781;BME280;37844;57.126;24.288;2023-04-25T08:30:15;100261.16;;;29.17;35.58
51781;BME280;37844;57.126;24.288;2023-04-25T08:32:59;100241.31;;;29.58;35.19
51781;BME280;37844;57.126;24.288;2023-04-25T08:35:43;100275.19;;;29.19;35.20
51781;BME280;37844;57.126;24.288;2023-04-25T08:38:28;100239.28;;;29.13;35.24
51781;BME280;37844;57.126;24.288;2023-04-25T08:41:12;100243.63;;;28.01;36.92
51781;BME280;37844;57.126;24.288;2023-04-25T08:43:57;100238.38;;;27.46;35.11
51781;BME280;37844;57.126;24.288;2023-04-25T08:46:43;100260.25;;;26.94;35.82
51781;BME280;37844;57.126;24.288;2023-04-25T08:49:31;100246.03;;;27.51;34.84
51781;BME280;37844;57.126;24.288;2023-04-25T08:52:15;100247.56;;;26.99;35.22
51781;BME280;37844;57.126;24.288;2023-04-25T08:55:04;100266.06;;;27.55;34.87
51781;BME280;37844;57.126;24.288;2023-04-25T08:57:50;100248.06;;;27.19;34.65
51781;BME280;37844;57.126;24.288;2023-04-25T09:00:35;100248.28;;;27.16;34.00
51781;BME280;37844;57.126;24.288;2023-04-25T09:03:19;100258.91;;;27.43;33.96
51781;BME280;37844;57.126;24.288;2023-04-25T09:06:03;100259.25;;;27.51;33.38
51781;BME280;37844;57.126;24.288;2023-04-25T09:08:49;100236.13;;;28.07;32.85
51781;BME280;37844;57.126;24.288;2023-04-25T09:11:34;100251.31;;;27.51;34.10
51781;BME280;37844;57.126;24.288;2023-04-25T09:14:20;100242.25;;;27.68;33.91
51781;BME280;37844;57.126;24.288;2023-04-25T09:17:05;100250.94;;;28.10;33.26
51781;BME280;37844;57.126;24.288;2023-04-25T09:19:51;100244.47;;;28.40;33.45
51781;BME280;37844;57.126;24.288;2023-04-25T09:22:36;100252.63;;;27.58;33.91
51781;BME280;37844;57.126;24.288;2023-04-25T09:25:20;100259.53;;;27.74;32.23
51781;BME280;37844;57.126;24.288;2023-04-25T09:28:05;100235.13;;;28.21;32.74
51781;BME280;37844;57.126;24.288;2023-04-25T09:30:48;100244.69;;;27.71;33.77
51781;BME280;37844;57.126;24.288;2023-04-25T09:33:33;100255.75;;;28.56;32.48
51781;BME280;37844;57.126;24.288;2023-04-25T09:36:19;100245.78;;;26.85;33.71
51781;BME280;37844;57.126;24.288;2023-04-25T09:39:12;100256.59;;;26.54;35.00
51781;BME280;37844;57.126;24.288;2023-04-25T09:41:58;100235.78;;;26.62;34.41
51781;BME280;37844;57.126;24.288;2023-04-25T09:44:46;100231.16;;;26.37;34.58
51781;BME280;37844;57.126;24.288;2023-04-25T09:47:30;100237.50;;;25.90;35.95
51781;BME280;37844;57.126;24.288;2023-04-25T09:50:15;100234.34;;;26.99;35.31
51781;BME280;37844;57.126;24.288;2023-04-25T09:53:03;100241.19;;;25.87;36.44
51781;BME280;37844;57.126;24.288;2023-04-25T09:55:49;100237.75;;;24.75;37.92
51781;BME280;37844;57.126;24.288;2023-04-25T09:58:33;100236.78;;;23.92;37.76
51781;BME280;37844;57.126;24.288;2023-04-25T10:01:17;100267.22;;;23.62;38.87
51781;BME280;37844;57.126;24.288;2023-04-25T10:04:01;100237.44;;;23.25;39.31
51781;BME280;37844;57.126;24.288;2023-04-25T10:06:49;100234.50;;;23.31;40.32
51781;BME280;37844;57.126;24.288;2023-04-25T10:09:40;100255.50;;;23.33;39.97
51781;BME280;37844;57.126;24.288;2023-04-25T10:12:26;100261.47;;;23.17;38.96
51781;BME280;37844;57.126;24.288;2023-04-25T10:15:10;100241.44;;;22.56;39.80
51781;BME280;37844;57.126;24.288;2023-04-25T10:17:54;100242.19;;;22.39;40.21
51781;BME280;37844;57.126;24.288;2023-04-25T10:20:39;100245.03;;;22.35;40.73
51781;BME280;37844;57.126;24.288;2023-04-25T10:23:23;100251.78;;;22.20;41.03
51781;BME280;37844;57.126;24.288;2023-04-25T10:26:08;100225.00;;;22.12;41.59
51781;BME280;37844;57.126;24.288;2023-04-25T10:29:00;100238.13;;;22.32;41.96
51781;BME280;37844;57.126;24.288;2023-04-25T10:31:47;100240.72;;;22.34;41.62
51781;BME280;37844;57.126;24.288;2023-04-25T10:34:43;100218.47;;;22.22;41.10
51781;BME280;37844;57.126;24.288;2023-04-25T10:37:30;100222.19;;;22.16;41.75
51781;BME280;37844;57.126;24.288;2023-04-25T10:40:21;100226.13;;;22.27;41.22
51781;BME280;37844;57.126;24.288;2023-04-25T10:46:16;100234.47;;;21.53;40.45
51781;BME280;37844;57.126;24.288;2023-04-25T10:49:01;100221.53;;;21.26;40.65
51781;BME280;37844;57.126;24.288;2023-04-25T10:51:45;100222.38;;;21.05;41.07
51781;BME280;37844;57.126;24.288;2023-04-25T10:54:29;100223.88;;;21.10;41.97
51781;BME280;37844;57.126;24.288;2023-04-25T11:02:59;100250.84;;;20.90;42.17
51781;BME280;37844;57.126;24.288;2023-04-25T11:05:43;100223.16;;;20.83;42.24
51781;BME280;37844;57.126;24.288;2023-04-25T11:08:34;100227.34;;;20.89;41.91
51781;BME280;37844;57.126;24.288;2023-04-25T11:11:22;100218.31;;;20.96;42.66
51781;BME280;37844;57.126;24.288;2023-04-25T11:14:06;100222.81;;;21.38;41.78
51781;BME280;37844;57.126;24.288;2023-04-25T11:16:59;100203.31;;;21.45;41.95
51781;BME280;37844;57.126;24.288;2023-04-25T11:19:43;100217.31;;;21.22;42.45
51781;BME280;37844;57.126;24.288;2023-04-25T11:22:27;100208.88;;;21.14;41.71
51781;BME280;37844;57.126;24.288;2023-04-25T11:25:12;100208.28;;;21.07;41.44
51781;BME280;37844;57.126;24.288;2023-04-25T11:27:57;100209.25;;;21.05;42.02
51781;BME280;37844;57.126;24.288;2023-04-25T11:30:47;100172.94;;;21.17;42.00
51781;BME280;37844;57.126;24.288;2023-04-25T11:33:31;100210.94;;;20.84;41.29
51781;BME280;37844;57.126;24.288;2023-04-25T11:36:22;100207.72;;;20.52;41.97
51781;BME280;37844;57.126;24.288;2023-04-25T11:39:06;100217.19;;;20.56;42.42
51781;BME280;37844;57.126;24.288;2023-04-25T11:41:50;100212.78;;;20.58;42.97
51781;BME280;37844;57.126;24.288;2023-04-25T11:44:35;100202.28;;;20.58;42.82
51781;BME280;37844;57.126;24.288;2023-04-25T11:47:27;100207.63;;;20.55;43.10
51781;BME280;37844;57.126;24.288;2023-04-25T11:50:11;100208.34;;;20.60;42.82
51781;BME280;37844;57.126;24.288;2023-04-25T11:52:55;100208.84;;;20.70;42.79
51781;BME280;37844;57.126;24.288;2023-04-25T11:55:39;100222.06;;;20.67;42.38
51781;BME280;37844;57.126;24.288;2023-04-25T11:58:24;100207.56;;;20.57;40.45
51781;BME280;37844;57.126;24.288;2023-04-25T12:01:08;100203.09;;;20.35;40.78
51781;BME280;37844;57.126;24.288;2023-04-25T12:03:52;100218.06;;;20.31;41.77
51781;BME280;37844;57.126;24.288;2023-04-25T12:06:37;100195.00;;;20.18;42.26
51781;BME280;37844;57.126;24.288;2023-04-25T12:09:32;100198.47;;;20.18;42.07
51781;BME280;37844;57.126;24.288;2023-04-25T12:12:16;100191.97;;;20.28;42.72
51781;BME280;37844;57.126;24.288;2023-04-25T12:17:54;100182.00;;;20.40;42.38
51781;BME280;37844;57.126;24.288;2023-04-25T12:20:38;100178.06;;;20.51;42.16
51781;BME280;37844;57.126;24.288;2023-04-25T12:23:28;100171.06;;;20.75;42.98
51781;BME280;37844;57.126;24.288;2023-04-25T12:26:14;100195.66;;;20.71;43.14
51781;BME280;37844;57.126;24.288;2023-04-25T12:28:57;100194.69;;;20.50;43.95
51781;BME280;37844;57.126;24.288;2023-04-25T12:31:41;100197.34;;;20.25;44.16
51781;BME280;37844;57.126;24.288;2023-04-25T12:34:25;100215.13;;;19.90;45.26
51781;BME280;37844;57.126;24.288;2023-04-25T12:37:09;100229.72;;;19.43;45.47
51781;BME280;37844;57.126;24.288;2023-04-25T12:39:54;100215.28;;;19.31;47.46
51781;BME280;37844;57.126;24.288;2023-04-25T12:42:38;100222.81;;;19.14;49.48
51781;BME280;37844;57.126;24.288;2023-04-25T12:45:22;100227.50;;;19.02;49.58
51781;BME280;37844;57.126;24.288;2023-04-25T12:48:06;100215.56;;;18.33;49.11
51781;BME280;37844;57.126;24.288;2023-04-25T12:50:50;100208.31;;;18.11;52.02
51781;BME280;37844;57.126;24.288;2023-04-25T12:53:35;100213.56;;;18.10;52.11
51781;BME280;37844;57.126;24.288;2023-04-25T12:56:21;100214.38;;;18.12;52.46
51781;BME280;37844;57.126;24.288;2023-04-25T12:59:04;100208.09;;;18.19;53.99
51781;BME280;37844;57.126;24.288;2023-04-25T13:01:48;100214.41;;;18.43;54.58
51781;BME280;37844;57.126;24.288;2023-04-25T13:04:33;100212.38;;;18.53;55.24
51781;BME280;37844;57.126;24.288;2023-04-25T13:07:17;100222.50;;;18.65;55.89
51781;BME280;37844;57.126;24.288;2023-04-25T13:10:01;100211.50;;;18.85;52.57
51781;BME280;37844;57.126;24.288;2023-04-25T13:12:46;100203.13;;;19.02;49.57
51781;BME280;37844;57.126;24.288;2023-04-25T13:15:30;100196.25;;;18.99;46.59
51781;BME280;37844;57.126;24.288;2023-04-25T13:18:15;100189.69;;;18.86;44.24
51781;BME280;37844;57.126;24.288;2023-04-25T13:20:59;100192.16;;;18.91;46.24
51781;BME280;37844;57.126;24.288;2023-04-25T13:23:43;100185.97;;;18.93;46.70
51781;BME280;37844;57.126;24.288;2023-04-25T13:26:28;100169.75;;;19.12;48.29
51781;BME280;37844;57.126;24.288;2023-04-25T13:29:13;100213.06;;;19.19;46.31
51781;BME280;37844;57.126;24.288;2023-04-25T13:31:57;100184.31;;;19.19;45.00
51781;BME280;37844;57.126;24.288;2023-04-25T13:34:41;100177.47;;;19.15;46.62
51781;BME280;37844;57.126;24.288;2023-04-25T13:37:25;100185.31;;;19.15;47.26
51781;BME280;37844;57.126;24.288;2023-04-25T13:40:09;100207.31;;;19.36;46.88
51781;BME280;37844;57.126;24.288;2023-04-25T13:42:55;100205.22;;;19.19;47.31
51781;BME280;37844;57.126;24.288;2023-04-25T13:45:39;100186.41;;;19.07;48.34
51781;BME280;37844;57.126;24.288;2023-04-25T13:48:23;100200.44;;;19.05;49.30
51781;BME280;37844;57.126;24.288;2023-04-25T13:51:08;100195.97;;;18.80;49.96
51781;BME280;37844;57.126;24.288;2023-04-25T13:53:52;100212.91;;;18.65;50.11
51781;BME280;37844;57.126;24.288;2023-04-25T13:56:36;100219.13;;;18.60;50.44
51781;BME280;37844;57.126;24.288;2023-04-25T13:59:20;100247.38;;;18.46;50.67
51781;BME280;37844;57.126;24.288;2023-04-25T14:02:04;100213.78;;;18.02;53.00
51781;BME280;37844;57.126;24.288;2023-04-25T14:04:48;100218.38;;;17.92;52.85
51781;BME280;37844;57.126;24.288;2023-04-25T14:07:33;100226.81;;;18.02;52.76
51781;BME280;37844;57.126;24.288;2023-04-25T14:10:18;100212.47;;;17.86;53.40
51781;BME280;37844;57.126;24.288;2023-04-25T14:13:02;100208.78;;;17.93;53.57
51781;BME280;37844;57.126;24.288;2023-04-25T14:15:46;100205.50;;;17.86;54.09
51781;BME280;37844;57.126;24.288;2023-04-25T14:18:30;100206.31;;;17.88;54.36
51781;BME280;37844;57.126;24.288;2023-04-25T14:21:14;100189.72;;;17.91;54.05